createdAt,value
2018-10-16T00:01:05.927Z,15.27
2018-10-16T00:03:35.138Z,10.17
2018-10-16T00:06:06.198Z,14.00
2018-10-16T00:08:35.202Z,12.98
2018-10-16T00:11:06.674Z,11.50
2018-10-16T00:13:36.262Z,13.37
2018-10-16T00:16:07.186Z,12.86
2018-10-16T00:18:36.503Z,12.60
2018-10-16T00:21:06.790Z,12.80
2018-10-16T00:23:36.036Z,11.93
2018-10-16T00:26:06.932Z,11.30
2018-10-16T00:28:36.700Z,11.93
2018-10-16T00:31:07.202Z,12.30
2018-10-16T00:33:36.822Z,11.73
2018-10-16T00:36:07.611Z,11.10
2018-10-16T00:38:37.181Z,12.65
2018-10-16T00:41:08.652Z,11.07
2018-10-16T00:43:37.768Z,13.07
2018-10-16T00:46:07.914Z,11.10
2018-10-16T00:48:37.163Z,10.53
2018-10-16T00:51:08.515Z,11.20
2018-10-16T00:53:38.279Z,11.63
2018-10-16T00:56:08.419Z,11.60
2018-10-16T00:58:38.154Z,11.43
2018-10-16T01:01:09.331Z,12.47
2018-10-16T01:03:38.830Z,11.97
2018-10-16T01:06:09.509Z,13.67
2018-10-16T01:08:38.877Z,14.30
2018-10-16T01:11:11.043Z,12.30
2018-10-16T01:13:40.555Z,11.47
2018-10-16T01:16:10.559Z,12.67
2018-10-16T01:18:39.541Z,11.33
2018-10-16T01:21:10.257Z,11.30
2018-10-16T01:23:39.504Z,15.87
2018-10-16T01:26:10.603Z,13.10
2018-10-16T01:28:40.287Z,13.97
2018-10-16T01:31:11.483Z,12.40
2018-10-16T01:33:41.633Z,12.90
2018-10-16T01:36:12.169Z,12.33
2018-10-16T01:38:41.753Z,11.17
2018-10-16T01:41:11.558Z,12.40
2018-10-16T01:43:41.143Z,16.33
2018-10-16T01:46:10.870Z,12.67
2018-10-16T01:48:40.172Z,11.77
2018-10-16T01:51:12.458Z,11.37
2018-10-16T01:53:41.796Z,11.87
2018-10-16T01:56:12.548Z,12.00
2018-10-16T01:58:41.789Z,11.67
2018-10-16T02:01:12.056Z,11.97
2018-10-16T02:03:41.481Z,11.17
2018-10-16T02:06:12.754Z,11.17
2018-10-16T02:08:42.676Z,12.43
2018-10-16T02:11:13.305Z,10.53
2018-10-16T02:13:42.733Z,14.07
2018-10-16T02:16:13.859Z,12.03
2018-10-16T02:18:43.203Z,13.55
2018-10-16T02:21:13.357Z,12.07
2018-10-16T02:23:43.202Z,10.63
2018-10-16T02:26:14.211Z,12.03
2018-10-16T02:28:43.843Z,10.65
2018-10-16T02:31:14.451Z,11.23
2018-10-16T02:33:43.889Z,11.47
2018-10-16T02:36:14.573Z,10.50
2018-10-16T02:38:43.745Z,10.20
2018-10-16T02:41:14.903Z,11.73
2018-10-16T02:43:44.383Z,11.50
2018-10-16T02:46:17.663Z,12.70
2018-10-16T02:48:47.113Z,14.03
2018-10-16T02:51:19.875Z,11.90
2018-10-16T02:53:48.965Z,11.30
2018-10-16T02:56:20.885Z,11.03
2018-10-16T02:58:50.121Z,11.22
2018-10-16T03:01:20.513Z,13.03
2018-10-16T03:03:49.761Z,13.33
2018-10-16T03:06:20.913Z,11.47
2018-10-16T03:08:50.316Z,13.13
2018-10-16T03:11:21.651Z,12.13
2018-10-16T03:13:51.009Z,12.53
2018-10-16T03:16:21.747Z,11.47
2018-10-16T03:18:51.483Z,11.27
2018-10-16T03:21:21.500Z,13.90
2018-10-16T03:23:50.769Z,12.10
2018-10-16T03:26:21.901Z,11.43
2018-10-16T03:28:51.399Z,14.67
2018-10-16T03:31:22.291Z,12.80
2018-10-16T03:33:51.707Z,13.97
2018-10-16T03:36:22.494Z,12.70
2018-10-16T03:38:51.703Z,14.80
2018-10-16T03:41:22.481Z,12.57
2018-10-16T03:44:01.808Z,10.83
2018-10-16T03:46:31.105Z,11.73
2018-10-16T03:49:00.143Z,12.80
2018-10-16T03:51:29.624Z,13.97
2018-10-16T03:53:59.290Z,13.00
2018-10-16T03:56:28.997Z,15.20
2018-10-16T03:58:58.229Z,12.10
2018-10-16T04:01:27.679Z,15.40
2018-10-16T04:03:57.058Z,13.87
2018-10-16T04:06:26.283Z,14.07
2018-10-16T04:08:55.863Z,14.93
2018-10-16T04:11:25.562Z,12.60
2018-10-16T04:13:54.796Z,12.87
2018-10-16T04:16:25.465Z,12.77
2018-10-16T04:18:54.540Z,13.57
2018-10-16T04:21:29.097Z,13.17
2018-10-16T04:23:58.735Z,13.47
2018-10-16T04:26:28.027Z,13.07
2018-10-16T04:28:57.429Z,13.33
2018-10-16T04:31:26.855Z,13.50
2018-10-16T04:33:56.661Z,14.63
2018-10-16T04:36:25.900Z,13.37
2018-10-16T04:38:55.161Z,13.43
2018-10-16T04:41:25.740Z,13.57
2018-10-16T04:43:56.028Z,13.17
2018-10-16T04:46:26.497Z,16.50
2018-10-16T04:48:56.498Z,13.60
2018-10-16T04:51:26.333Z,13.27
2018-10-16T04:53:55.667Z,14.40
2018-10-16T04:56:26.101Z,14.30
2018-10-16T04:58:55.247Z,13.43
2018-10-16T05:01:26.859Z,13.70
2018-10-16T05:03:57.272Z,14.07
2018-10-16T05:06:27.452Z,14.43
2018-10-16T05:08:57.471Z,11.93
2018-10-16T05:11:27.393Z,13.13
2018-10-16T05:13:56.977Z,21.77
2018-10-16T05:16:26.937Z,18.93
2018-10-16T05:18:57.191Z,19.57
2018-10-16T05:21:27.149Z,18.23
2018-10-16T05:23:56.262Z,15.37
2018-10-16T05:26:27.513Z,15.90
2018-10-16T05:28:56.781Z,16.02
2018-10-16T05:31:28.257Z,16.30
2018-10-16T05:33:58.295Z,15.93
2018-10-16T05:36:28.377Z,18.13
2018-10-16T05:38:57.667Z,18.70
2018-10-16T05:41:28.511Z,15.53
2018-10-16T05:43:58.281Z,15.40
2018-10-16T05:46:28.761Z,14.67
2018-10-16T05:48:58.925Z,14.97
2018-10-16T05:51:30.723Z,17.47
2018-10-16T05:54:00.911Z,21.13
2018-10-16T05:56:32.330Z,21.43
2018-10-16T05:59:02.891Z,20.70
2018-10-16T06:01:33.252Z,19.03
2018-10-16T06:04:03.187Z,22.03
2018-10-16T06:06:33.185Z,23.43
2018-10-16T06:09:02.417Z,48.73
2018-10-16T06:11:32.229Z,28.33
2018-10-16T06:14:01.945Z,20.60
2018-10-16T06:16:31.681Z,27.47
2018-10-16T06:19:01.172Z,18.80
2018-10-16T06:21:30.600Z,24.90
2018-10-16T06:23:59.819Z,18.17
2018-10-16T06:26:29.854Z,16.03
2018-10-16T06:28:59.171Z,20.93
2018-10-16T06:31:30.375Z,13.83
2018-10-16T06:33:59.748Z,18.40
2018-10-16T06:36:30.907Z,12.83
2018-10-16T06:39:00.120Z,16.07
2018-10-16T06:41:30.424Z,17.27
2018-10-16T06:43:59.754Z,20.10
2018-10-16T06:46:31.131Z,17.17
2018-10-16T06:49:00.873Z,14.93
2018-10-16T06:51:31.336Z,14.07
2018-10-16T06:54:00.644Z,16.77
2018-10-16T06:56:31.219Z,21.27
2018-10-16T06:59:00.365Z,16.27
2018-10-16T07:01:31.201Z,19.97
2018-10-16T07:04:00.369Z,15.80
2018-10-16T07:06:31.537Z,15.00
2018-10-16T07:09:01.326Z,13.70
2018-10-16T07:11:32.042Z,14.53
2018-10-16T07:14:01.558Z,18.40
2018-10-16T07:16:32.562Z,17.53
2018-10-16T07:19:02.165Z,17.25
2018-10-16T07:21:33.105Z,17.57
2018-10-16T07:24:02.374Z,13.90
2018-10-16T07:26:32.710Z,15.20
2018-10-16T07:29:01.984Z,14.87
2018-10-16T07:31:32.952Z,14.90
2018-10-16T07:34:02.544Z,15.07
2018-10-16T07:36:33.229Z,14.50
2018-10-16T07:39:03.615Z,14.53
2018-10-16T07:41:33.481Z,17.67
2018-10-16T07:44:03.654Z,13.43
2018-10-16T07:46:33.746Z,15.90
2018-10-16T07:49:03.236Z,19.60
2018-10-16T07:51:34.392Z,16.40
2018-10-16T07:54:03.874Z,21.30
2018-10-16T07:56:33.964Z,16.30
2018-10-16T07:59:03.616Z,15.10
2018-10-16T08:01:34.013Z,16.70
2018-10-16T08:04:03.432Z,14.90
2018-10-16T08:06:35.176Z,15.37
2018-10-16T08:09:07.916Z,18.70
2018-10-16T08:11:38.742Z,12.80
2018-10-16T08:14:08.194Z,17.40
2018-10-16T08:16:37.523Z,15.53
2018-10-16T08:19:07.207Z,15.13
2018-10-16T08:21:37.012Z,13.27
2018-10-16T08:24:07.350Z,13.13
2018-10-16T08:26:37.262Z,14.97
2018-10-16T08:29:07.088Z,11.50
2018-10-16T08:31:36.364Z,12.10
2018-10-16T08:34:05.854Z,16.80
2018-10-16T08:36:36.168Z,15.37
2018-10-16T08:39:11.931Z,14.67
2018-10-16T08:44:07.898Z,15.70
2018-10-16T08:46:47.981Z,16.13
2018-10-16T08:49:27.955Z,18.73
2018-10-16T08:51:58.298Z,17.87
2018-10-16T08:54:27.535Z,16.93
2018-10-16T08:56:56.977Z,18.97
2018-10-16T08:59:27.416Z,16.83
2018-10-16T09:01:57.482Z,14.80
2018-10-16T09:04:26.748Z,16.13
2018-10-16T09:06:56.618Z,18.10
2018-10-16T09:09:26.013Z,18.83
2018-10-16T09:11:55.416Z,13.07
2018-10-16T09:14:25.659Z,14.83
2018-10-16T09:16:54.936Z,15.40
2018-10-16T09:19:24.118Z,16.47
2018-10-16T09:21:53.924Z,14.77
2018-10-16T09:24:23.462Z,17.60
2018-10-16T09:26:53.991Z,14.70
2018-10-16T09:29:23.657Z,13.20
2018-10-16T09:31:53.639Z,16.33
2018-10-16T09:34:22.770Z,14.60
2018-10-16T09:36:52.325Z,16.00
2018-10-16T09:39:21.841Z,14.30
2018-10-16T09:41:51.460Z,14.10
2018-10-16T09:44:20.747Z,12.80
2018-10-16T09:46:50.319Z,13.10
2018-10-16T09:49:19.554Z,12.97
2018-10-16T09:51:48.874Z,15.87
2018-10-16T09:54:18.289Z,12.40
2018-10-16T09:56:47.959Z,13.23
2018-10-16T09:59:17.213Z,14.10
2018-10-16T10:01:48.229Z,14.37
2018-10-16T10:04:17.451Z,15.53
2018-10-16T10:06:46.595Z,14.23
2018-10-16T10:09:16.158Z,12.60
2018-10-16T10:11:45.593Z,15.70
2018-10-16T10:14:15.147Z,12.70
2018-10-16T10:16:44.545Z,10.77
2018-10-16T10:19:14.553Z,15.00
2018-10-16T10:21:44.611Z,10.53
2018-10-16T10:24:14.533Z,12.73
2018-10-16T10:26:44.297Z,15.83
2018-10-16T10:29:13.578Z,16.30
2018-10-16T10:31:42.983Z,11.13
2018-10-16T10:34:12.358Z,14.50
2018-10-16T10:36:42.001Z,11.27
2018-10-16T10:39:12.367Z,13.20
2018-10-16T10:41:42.707Z,11.00
2018-10-16T10:44:11.986Z,12.53
2018-10-16T10:46:41.594Z,11.90
2018-10-16T10:49:10.940Z,15.40
2018-10-16T10:51:42.007Z,11.97
2018-10-16T10:54:11.069Z,15.67
2018-10-16T10:56:41.772Z,10.93
2018-10-16T10:59:11.781Z,13.23
2018-10-16T11:01:42.844Z,11.73
2018-10-16T11:04:12.598Z,9.83
2018-10-16T11:06:42.608Z,13.73
2018-10-16T11:09:13.827Z,11.43
2018-10-16T11:11:47.184Z,14.20
2018-10-16T11:14:16.709Z,12.50
2018-10-16T11:16:46.386Z,10.07
2018-10-16T11:19:16.916Z,8.73
2018-10-16T11:21:46.713Z,14.10
2018-10-16T11:24:16.152Z,9.37
2018-10-16T11:26:45.374Z,9.43
2018-10-16T11:29:15.303Z,14.83
2018-10-16T11:31:45.122Z,10.53
2018-10-16T11:34:14.742Z,11.57
2018-10-16T11:36:44.274Z,9.73
2018-10-16T11:39:14.041Z,11.00
2018-10-16T11:41:43.926Z,10.10
2018-10-16T11:44:13.929Z,9.87
2018-10-16T11:46:44.654Z,8.60
2018-10-16T11:49:13.839Z,9.80
2018-10-16T11:51:44.631Z,10.97
2018-10-16T11:54:14.404Z,10.30
2018-10-16T11:56:44.739Z,9.77
2018-10-16T11:59:14.217Z,8.33
2018-10-16T12:01:45.683Z,7.07
2018-10-16T12:04:15.258Z,8.40
2018-10-16T12:06:45.585Z,7.30
2018-10-16T12:09:15.335Z,9.10
2018-10-16T12:11:45.654Z,8.57
2018-10-16T12:14:15.311Z,8.90
2018-10-16T12:16:50.399Z,9.00
2018-10-16T12:19:30.142Z,13.13
2018-10-16T12:21:59.891Z,19.50
2018-10-16T12:24:29.976Z,8.40
2018-10-16T12:26:59.435Z,10.03
2018-10-16T12:29:29.056Z,15.57
2018-10-16T12:31:58.304Z,29.27
2018-10-16T12:34:27.381Z,10.78
2018-10-16T12:36:56.809Z,8.50
2018-10-16T12:39:26.535Z,7.45
2018-10-16T12:41:56.988Z,7.70
2018-10-16T12:44:26.573Z,8.88
2018-10-16T12:46:56.101Z,8.58
2018-10-16T12:49:25.284Z,7.40
2018-10-16T12:51:54.706Z,7.80
2018-10-16T12:54:24.108Z,6.58
2018-10-16T12:56:53.547Z,10.05
2018-10-16T12:59:22.743Z,9.13
2018-10-16T13:01:52.180Z,9.70
2018-10-16T13:04:21.501Z,13.48
2018-10-16T13:06:51.212Z,9.63
2018-10-16T13:09:20.869Z,21.55
2018-10-16T13:11:50.163Z,16.30
2018-10-16T13:14:19.798Z,11.35
2018-10-16T13:16:50.043Z,9.38
2018-10-16T13:19:19.283Z,9.50
2018-10-16T13:21:49.381Z,9.83
2018-10-16T13:24:19.180Z,11.00
2018-10-16T13:26:49.097Z,8.88
2018-10-16T13:29:19.303Z,10.90
2018-10-16T13:31:49.101Z,9.80
2018-10-16T13:34:18.747Z,8.48
2018-10-16T13:36:48.992Z,7.05
2018-10-16T13:39:18.159Z,8.33
2018-10-16T13:41:49.352Z,6.85
2018-10-16T13:44:18.554Z,7.10
2018-10-16T13:46:49.254Z,6.65
2018-10-16T13:49:18.695Z,7.50
2018-10-16T13:51:49.362Z,7.62
2018-10-16T13:54:18.594Z,8.60
2018-10-16T13:56:50.703Z,19.25
2018-10-16T13:59:20.300Z,15.25
2018-10-16T14:01:50.990Z,7.30
2018-10-16T14:04:20.260Z,7.72
2018-10-16T14:06:53.767Z,11.12
2018-10-16T14:09:23.077Z,11.05
2018-10-16T14:11:52.347Z,7.20
2018-10-16T14:14:22.577Z,9.45
2018-10-16T14:16:52.050Z,8.58
2018-10-16T14:19:21.351Z,10.36
2018-10-16T14:21:52.499Z,11.70
2018-10-16T14:24:21.681Z,9.70
2018-10-16T14:26:51.651Z,8.47
2018-10-16T14:29:21.064Z,8.87
2018-10-16T14:31:52.121Z,10.90
2018-10-16T14:34:21.709Z,11.37
2018-10-16T14:36:53.875Z,10.07
2018-10-16T14:39:23.150Z,9.97
2018-10-16T14:41:53.056Z,12.10
2018-10-16T14:44:22.268Z,7.47
2018-10-16T14:46:53.263Z,9.13
2018-10-16T14:49:23.144Z,14.17
2018-10-16T14:51:53.543Z,7.97
2018-10-16T14:54:23.180Z,8.13
2018-10-16T14:56:53.960Z,8.20
2018-10-16T14:59:23.527Z,7.83
2018-10-16T15:01:54.065Z,8.43
2018-10-16T15:04:24.004Z,9.97
2018-10-16T15:06:57.282Z,9.23
2018-10-16T15:09:26.893Z,11.87
2018-10-16T15:11:56.320Z,9.57
2018-10-16T15:14:25.677Z,8.63
2018-10-16T15:16:55.352Z,9.00
2018-10-16T15:19:25.419Z,8.80
2018-10-16T15:21:55.457Z,10.63
2018-10-16T15:24:25.118Z,8.67
2018-10-16T15:26:56.264Z,8.63
2018-10-16T15:29:27.852Z,7.97
2018-10-16T15:31:57.396Z,8.23
2018-10-16T15:34:27.070Z,10.60
2018-10-16T15:36:56.475Z,8.37
2018-10-16T15:39:26.584Z,10.57
2018-10-16T15:41:56.464Z,7.87
2018-10-16T15:44:26.394Z,9.17
2018-10-16T15:46:57.604Z,10.80
2018-10-16T15:49:27.090Z,9.57
2018-10-16T15:51:56.963Z,8.83
2018-10-16T15:54:26.147Z,7.97
2018-10-16T15:56:56.850Z,7.90
2018-10-16T15:59:26.192Z,8.53
2018-10-16T16:01:56.754Z,10.07
2018-10-16T16:04:26.572Z,8.23
2018-10-16T16:06:57.413Z,9.63
2018-10-16T16:09:27.018Z,7.87
2018-10-16T16:11:57.394Z,5.50
2018-10-16T16:14:26.805Z,5.77
2018-10-16T16:16:57.618Z,5.30
2018-10-16T16:19:27.200Z,12.43
2018-10-16T16:21:58.673Z,9.27
2018-10-16T16:24:27.932Z,9.03
2018-10-16T16:26:58.956Z,12.00
2018-10-16T16:29:28.266Z,9.80
2018-10-16T16:31:58.654Z,13.57
2018-10-16T16:34:28.149Z,16.07
2018-10-16T16:36:58.730Z,15.20
2018-10-16T16:39:28.066Z,11.40
2018-10-16T16:41:59.226Z,11.03
2018-10-16T16:44:28.783Z,8.60
2018-10-16T16:46:59.942Z,9.83
2018-10-16T16:49:29.320Z,16.23
2018-10-16T16:52:02.198Z,14.30
2018-10-16T16:54:31.683Z,27.50
2018-10-16T16:57:01.122Z,13.63
2018-10-16T16:59:30.403Z,17.37
2018-10-16T17:02:01.067Z,32.13
2018-10-16T17:04:30.624Z,16.57
2018-10-16T17:07:00.495Z,11.43
2018-10-16T17:09:29.872Z,11.20
2018-10-16T17:12:00.149Z,10.03
2018-10-16T17:14:30.092Z,13.73
2018-10-16T17:17:00.560Z,11.47
2018-10-16T17:19:31.381Z,10.03
2018-10-16T17:22:01.639Z,7.23
2018-10-16T17:24:31.286Z,10.33
2018-10-16T17:27:01.947Z,16.10
2018-10-16T17:29:32.040Z,15.37
2018-10-16T17:32:01.612Z,19.07
2018-10-16T17:34:30.976Z,15.67
2018-10-16T17:37:01.821Z,19.13
2018-10-16T17:39:31.101Z,19.10
2018-10-16T17:42:02.116Z,10.72
2018-10-16T17:45:20.913Z,9.33
2018-10-16T17:47:52.083Z,9.63
2018-10-16T17:50:21.251Z,8.27
2018-10-16T17:52:50.575Z,8.47
2018-10-16T17:55:19.944Z,9.23
2018-10-16T17:57:49.196Z,9.93
2018-10-16T18:00:19.442Z,9.73
2018-10-16T18:02:48.882Z,11.63
2018-10-16T18:05:18.478Z,8.10
2018-10-16T18:07:48.016Z,8.40
2018-10-16T18:10:17.510Z,7.83
2018-10-16T18:12:46.830Z,8.20
2018-10-16T18:15:16.317Z,9.93
2018-10-16T18:17:45.558Z,9.00
2018-10-16T18:20:15.997Z,12.63
2018-10-16T18:22:46.108Z,11.17
2018-10-16T18:25:15.640Z,10.37
2018-10-16T18:27:45.882Z,12.27
2018-10-16T18:30:15.528Z,9.37
2018-10-16T18:32:44.678Z,9.33
2018-10-16T18:35:13.780Z,8.17
2018-10-16T18:37:44.025Z,10.97
2018-10-16T18:40:14.192Z,11.87
2018-10-16T18:42:43.600Z,11.23
2018-10-16T18:45:14.044Z,12.97
2018-10-16T18:47:43.386Z,9.73
2018-10-16T18:50:13.791Z,10.37
2018-10-16T18:52:43.720Z,9.30
2018-10-16T18:55:13.969Z,9.80
2018-10-16T18:57:43.162Z,9.30
2018-10-16T19:00:14.706Z,9.30
2018-10-16T19:02:43.785Z,9.10
2018-10-16T19:05:13.272Z,10.97
2018-10-16T19:07:42.821Z,9.40
2018-10-16T19:10:12.668Z,9.33
2018-10-16T19:12:42.620Z,12.47
2018-10-16T19:15:13.602Z,10.17
2018-10-16T19:17:44.035Z,12.53
2018-10-16T19:20:14.266Z,10.07
2018-10-16T19:22:44.462Z,11.10
2018-10-16T19:25:15.641Z,11.30
2018-10-16T19:27:45.246Z,11.37
2018-10-16T19:30:15.267Z,11.93
2018-10-16T19:32:44.420Z,15.30
2018-10-16T19:35:14.912Z,13.60
2018-10-16T19:38:21.291Z,10.07
2018-10-16T19:40:50.777Z,10.65
2018-10-16T19:43:20.029Z,11.50
2018-10-16T19:45:49.409Z,10.50
2018-10-16T19:48:18.783Z,10.90
2018-10-16T19:50:48.082Z,13.17
2018-10-16T19:53:17.221Z,11.77
2018-10-16T19:55:46.579Z,11.60
2018-10-16T19:58:16.296Z,11.87
2018-10-16T20:00:45.681Z,12.40
2018-10-16T20:03:15.079Z,12.77
2018-10-16T20:05:44.152Z,11.63
2018-10-16T20:08:13.359Z,11.73
2018-10-16T20:10:42.939Z,12.47
2018-10-16T20:13:12.463Z,11.07
2018-10-16T20:15:41.894Z,11.93
2018-10-16T20:18:11.283Z,11.07
2018-10-16T20:20:41.729Z,13.50
2018-10-16T20:23:10.975Z,13.60
2018-10-16T20:25:40.201Z,10.90
2018-10-16T20:28:09.749Z,11.67
2018-10-16T20:30:39.261Z,12.27
2018-10-16T20:33:10.484Z,15.67
2018-10-16T20:35:39.907Z,12.23
2018-10-16T20:38:09.844Z,12.70
2018-10-16T20:40:38.938Z,12.00
2018-10-16T20:43:09.926Z,11.97
2018-10-16T20:45:39.111Z,12.27
2018-10-16T20:48:10.409Z,12.10
2018-10-16T20:50:40.071Z,12.47
2018-10-16T20:53:11.035Z,12.17
2018-10-16T20:55:40.606Z,11.53
2018-10-16T20:58:12.463Z,13.63
2018-10-16T21:00:42.444Z,13.10
2018-10-16T21:03:11.845Z,12.70
2018-10-16T21:05:41.342Z,14.23
2018-10-16T21:08:11.526Z,13.30
2018-10-16T21:10:40.953Z,13.53
2018-10-16T21:13:11.558Z,13.73
2018-10-16T21:15:41.215Z,13.30
2018-10-16T21:18:11.792Z,12.40
2018-10-16T21:20:41.272Z,12.43
2018-10-16T21:23:11.575Z,13.07
2018-10-16T21:25:40.752Z,14.23
2018-10-16T21:28:12.026Z,13.43
2018-10-16T21:30:41.682Z,13.40
2018-10-16T21:33:12.218Z,11.93
2018-10-16T21:35:41.784Z,14.50
2018-10-16T21:38:12.622Z,13.67
2018-10-16T21:40:42.405Z,12.70
2018-10-16T21:43:13.842Z,13.30
2018-10-16T21:45:43.409Z,13.33
2018-10-16T21:48:13.084Z,13.60
2018-10-16T21:50:42.493Z,15.70
2018-10-16T21:53:15.291Z,13.47
2018-10-16T21:55:45.305Z,13.20
2018-10-16T21:58:14.606Z,13.33
2018-10-16T22:00:49.105Z,13.33
2018-10-16T22:03:18.756Z,15.77
2018-10-16T22:05:48.153Z,14.13
2018-10-16T22:08:17.472Z,13.87
2018-10-16T22:10:46.794Z,14.40
2018-10-16T22:13:16.470Z,14.87
2018-10-16T22:15:46.029Z,14.23
2018-10-16T22:18:15.558Z,13.90
2018-10-16T22:20:44.729Z,13.73
2018-10-16T22:23:14.855Z,13.70
2018-10-16T22:25:44.119Z,12.97
2018-10-16T22:28:14.892Z,14.13
2018-10-16T22:30:44.668Z,14.10
2018-10-16T22:33:15.123Z,15.30
2018-10-16T22:35:44.667Z,14.97
2018-10-16T22:38:14.899Z,14.93
2018-10-16T22:40:44.147Z,16.73
2018-10-16T22:43:15.662Z,13.60
2018-10-16T22:45:45.343Z,15.00
2018-10-16T22:48:15.611Z,14.27
2018-10-16T22:50:44.906Z,12.87
2018-10-16T22:53:15.498Z,14.97
2018-10-16T22:55:45.483Z,14.83
2018-10-16T22:58:15.637Z,14.43
2018-10-16T23:00:45.375Z,13.25
2018-10-16T23:03:18.837Z,15.50
2018-10-16T23:05:48.095Z,13.47
2018-10-16T23:08:19.491Z,13.87
2018-10-16T23:10:49.672Z,14.00
2018-10-16T23:13:21.117Z,14.53
2018-10-16T23:15:50.737Z,14.70
2018-10-16T23:18:20.822Z,15.23
2018-10-16T23:20:50.229Z,13.87
2018-10-16T23:23:21.522Z,16.27
2018-10-16T23:25:50.867Z,14.03
2018-10-16T23:28:21.127Z,13.17
2018-10-16T23:30:51.122Z,14.63
2018-10-16T23:33:21.249Z,16.10
2018-10-16T23:35:50.657Z,14.53
2018-10-16T23:38:21.617Z,15.80
2018-10-16T23:40:51.287Z,13.67
2018-10-16T23:43:22.155Z,14.23
2018-10-16T23:45:51.692Z,14.47
2018-10-16T23:48:22.729Z,13.27
2018-10-16T23:50:52.164Z,15.17
2018-10-16T23:53:22.607Z,12.90
2018-10-16T23:55:51.889Z,13.37
2018-10-16T23:58:22.973Z,13.10
